createdAt,value
2022-09-24T00:01:38.757Z,86.40
2022-09-24T00:04:09.664Z,86.50
2022-09-24T00:06:44.420Z,86.50
2022-09-24T00:09:14.510Z,86.40
2022-09-24T00:11:43.988Z,86.40
2022-09-24T00:14:11.342Z,86.40
2022-09-24T00:16:40.515Z,86.40
2022-09-24T00:19:07.652Z,86.50
2022-09-24T00:21:37.294Z,86.50
2022-09-24T00:24:33.840Z,86.50
2022-09-24T00:27:01.033Z,86.60
2022-09-24T00:29:27.986Z,86.40
2022-09-24T00:31:55.106Z,86.50
2022-09-24T00:34:22.042Z,86.50
2022-09-24T00:36:48.923Z,86.70
2022-09-24T00:39:16.692Z,86.70
2022-09-24T00:41:47.844Z,86.60
2022-09-24T00:44:45.849Z,86.60
2022-09-24T00:47:27.833Z,86.80
2022-09-24T00:50:18.357Z,86.70
2022-09-24T00:53:07.565Z,86.60
2022-09-24T00:55:36.852Z,86.80
2022-09-24T00:58:07.298Z,86.50
2022-09-24T01:00:37.094Z,86.40
2022-09-24T01:03:11.455Z,86.40
2022-09-24T01:05:39.230Z,86.40
2022-09-24T01:08:14.581Z,86.20
2022-09-24T01:11:18.300Z,86.30
2022-09-24T01:14:36.652Z,86.30
2022-09-24T01:17:14.359Z,86.30
2022-09-24T01:20:17.808Z,86.20
2022-09-24T01:23:21.259Z,86.30
2022-09-24T01:26:33.509Z,86.10
2022-09-24T01:29:25.157Z,86.40
2022-09-24T01:32:07.389Z,86.40
2022-09-24T01:35:00.386Z,86.40
2022-09-24T01:37:31.830Z,86.70
2022-09-24T01:40:00.238Z,86.40
2022-09-24T01:42:30.332Z,86.40
2022-09-24T01:44:58.242Z,86.70
2022-09-24T01:47:39.812Z,86.50
2022-09-24T01:50:17.186Z,86.80
2022-09-24T01:53:11.411Z,87.00
2022-09-24T01:55:48.938Z,87.40
2022-09-24T01:58:29.773Z,87.20
2022-09-24T02:01:08.197Z,87.40
2022-09-24T02:03:43.555Z,87.60
2022-09-24T02:06:25.393Z,87.60
2022-09-24T02:08:52.281Z,87.80
2022-09-24T02:11:23.245Z,87.50
2022-09-24T02:14:13.662Z,87.60
2022-09-24T02:16:46.838Z,87.60
2022-09-24T02:19:23.627Z,87.60
2022-09-24T02:21:52.079Z,87.70
2022-09-24T02:24:33.603Z,87.50
2022-09-24T02:27:00.796Z,87.70
2022-09-24T02:29:27.717Z,87.60
2022-09-24T02:31:56.965Z,87.60
2022-09-24T02:34:32.989Z,87.70
2022-09-24T02:37:06.754Z,87.80
2022-09-24T02:39:33.960Z,87.80
2022-09-24T02:42:03.813Z,87.80
2022-09-24T02:44:31.167Z,88.00
2022-09-24T02:46:58.810Z,87.90
2022-09-24T02:49:25.851Z,87.90
2022-09-24T02:51:52.733Z,87.90
2022-09-24T02:54:19.599Z,88.00
2022-09-24T02:56:46.493Z,88.10
2022-09-24T02:59:13.608Z,88.20
2022-09-24T03:01:40.886Z,88.30
2022-09-24T03:04:08.217Z,88.40
2022-09-24T03:06:35.165Z,88.40
2022-09-24T03:09:03.411Z,88.40
2022-09-24T03:11:32.006Z,88.50
2022-09-24T03:13:59.465Z,88.50
2022-09-24T03:16:27.203Z,88.70
2022-09-24T03:18:54.143Z,88.80
2022-09-24T03:21:22.311Z,88.80
2022-09-24T03:23:49.521Z,89.10
2022-09-24T03:26:17.806Z,89.10
2022-09-24T03:28:45.116Z,89.10
2022-09-24T03:31:12.804Z,89.20
2022-09-24T03:33:43.449Z,89.30
2022-09-24T03:36:25.806Z,89.30
2022-09-24T03:38:56.276Z,89.50
2022-09-24T03:41:25.420Z,89.40
2022-09-24T03:43:52.405Z,89.40
2022-09-24T03:46:19.538Z,89.30
2022-09-24T03:48:47.486Z,89.40
2022-09-24T03:51:19.143Z,89.70
2022-09-24T03:53:47.524Z,89.90
2022-09-24T03:56:14.827Z,90.00
2022-09-24T03:58:47.379Z,90.00
2022-09-24T04:01:21.753Z,90.00
2022-09-24T04:03:50.497Z,90.10
2022-09-24T04:06:22.015Z,90.10
2022-09-24T04:08:51.854Z,90.10
2022-09-24T04:11:18.710Z,90.10
2022-09-24T04:13:45.567Z,90.10
2022-09-24T04:16:12.521Z,90.10
2022-09-24T04:18:39.701Z,90.10
2022-09-24T04:21:07.148Z,90.10
2022-09-24T04:23:34.224Z,90.00
2022-09-24T04:26:02.241Z,90.00
2022-09-24T04:28:30.289Z,89.90
2022-09-24T04:30:58.180Z,89.90
2022-09-24T04:33:25.662Z,89.70
2022-09-24T04:35:52.546Z,89.50
2022-09-24T04:38:21.244Z,89.40
2022-09-24T04:40:48.796Z,89.20
2022-09-24T04:43:15.850Z,89.20
2022-09-24T04:45:45.788Z,89.10
2022-09-24T04:48:13.281Z,89.10
2022-09-24T04:50:45.540Z,88.90
2022-09-24T04:53:13.186Z,88.80
2022-09-24T04:55:41.525Z,88.70
2022-09-24T04:58:08.551Z,88.60
2022-09-24T05:00:35.415Z,88.50
2022-09-24T05:03:03.688Z,88.70
2022-09-24T05:05:32.764Z,89.10
2022-09-24T05:08:01.392Z,89.10
2022-09-24T05:10:31.426Z,89.30
2022-09-24T05:12:58.371Z,89.20
2022-09-24T05:15:25.253Z,89.10
2022-09-24T05:17:52.151Z,89.20
2022-09-24T05:20:19.024Z,89.10
2022-09-24T05:22:49.441Z,89.20
2022-09-24T05:25:18.973Z,89.30
2022-09-24T05:27:48.475Z,89.50
2022-09-24T05:30:17.091Z,89.60
2022-09-24T05:32:44.185Z,89.90
2022-09-24T05:35:11.129Z,90.00
2022-09-24T05:37:39.120Z,90.10
2022-09-24T05:40:26.048Z,90.10
2022-09-24T05:43:00.050Z,90.10
2022-09-24T05:45:26.907Z,90.10
2022-09-24T05:47:53.812Z,90.10
2022-09-24T05:50:21.383Z,90.10
2022-09-24T05:52:48.377Z,90.20
2022-09-24T05:55:15.406Z,90.20
2022-09-24T05:57:42.287Z,90.20
2022-09-24T06:00:09.877Z,90.20
2022-09-24T06:02:39.876Z,90.20
2022-09-24T06:05:07.452Z,90.20
2022-09-24T06:07:34.373Z,90.20
2022-09-24T06:10:01.252Z,90.10
2022-09-24T06:12:28.361Z,90.00
2022-09-24T06:14:55.241Z,90.00
2022-09-24T06:17:22.214Z,89.70
2022-09-24T06:19:49.086Z,89.50
2022-09-24T06:22:15.990Z,89.50
2022-09-24T06:24:42.856Z,89.60
2022-09-24T06:27:09.740Z,89.60
2022-09-24T06:29:36.613Z,89.90
2022-09-24T06:32:03.680Z,90.00
2022-09-24T06:34:30.639Z,90.00
2022-09-24T06:36:57.529Z,90.00
2022-09-24T06:39:27.284Z,90.00
2022-09-24T06:41:56.640Z,89.70
2022-09-24T06:44:24.102Z,89.50
2022-09-24T06:46:51.552Z,89.60
2022-09-24T06:49:18.467Z,89.60
2022-09-24T06:51:45.995Z,89.90
2022-09-24T06:54:12.937Z,89.50
2022-09-24T06:56:40.358Z,89.30
2022-09-24T06:59:09.114Z,89.30
2022-09-24T07:01:36.186Z,89.10
2022-09-24T07:04:03.137Z,88.70
2022-09-24T07:06:49.985Z,88.50
2022-09-24T07:09:16.879Z,87.90
2022-09-24T07:11:46.051Z,87.70
2022-09-24T07:14:13.718Z,87.50
2022-09-24T07:16:40.601Z,87.20
2022-09-24T07:19:07.597Z,87.50
2022-09-24T07:21:35.339Z,87.50
2022-09-24T07:24:02.374Z,87.50
2022-09-24T07:26:29.943Z,87.40
2022-09-24T07:28:56.834Z,87.00
2022-09-24T07:31:26.962Z,86.50
2022-09-24T07:33:53.909Z,85.80
2022-09-24T07:36:20.775Z,85.30
2022-09-24T07:38:47.735Z,85.30
2022-09-24T07:41:14.788Z,85.60
2022-09-24T07:43:42.136Z,86.10
2022-09-24T07:46:09.268Z,85.80
2022-09-24T07:48:36.303Z,86.10
2022-09-24T07:51:03.201Z,85.80
2022-09-24T07:53:30.085Z,85.80
2022-09-24T07:55:59.650Z,85.90
2022-09-24T07:58:26.586Z,86.00
2022-09-24T08:00:53.478Z,85.90
2022-09-24T08:03:20.428Z,85.50
2022-09-24T08:05:47.593Z,85.50
2022-09-24T08:08:14.962Z,85.50
2022-09-24T08:10:42.985Z,85.50
2022-09-24T08:13:09.869Z,85.70
2022-09-24T08:15:36.827Z,85.50
2022-09-24T08:18:04.994Z,85.10
2022-09-24T08:20:37.184Z,85.00
2022-09-24T08:23:07.537Z,85.00
2022-09-24T08:25:34.403Z,85.20
2022-09-24T08:28:03.389Z,84.90
2022-09-24T08:30:30.997Z,84.50
2022-09-24T08:32:58.712Z,84.30
2022-09-24T08:35:25.629Z,84.30
2022-09-24T08:37:55.568Z,84.60
2022-09-24T08:40:30.180Z,84.80
2022-09-24T08:43:36.669Z,85.20
2022-09-24T08:46:35.202Z,85.50
2022-09-24T08:49:05.031Z,85.40
2022-09-24T08:51:41.328Z,85.30
2022-09-24T08:54:13.449Z,85.20
2022-09-24T08:56:45.689Z,85.40
2022-09-24T08:59:30.321Z,85.00
2022-09-24T09:02:35.251Z,84.90
2022-09-24T09:05:29.815Z,84.60
2022-09-24T09:08:27.387Z,84.20
2022-09-24T09:11:03.056Z,83.50
2022-09-24T09:13:44.300Z,84.10
2022-09-24T09:16:29.854Z,83.50
2022-09-24T09:19:06.515Z,83.10
2022-09-24T09:21:49.240Z,82.90
2022-09-24T09:24:27.361Z,82.80
2022-09-24T09:26:56.703Z,83.10
2022-09-24T09:29:25.978Z,83.00
2022-09-24T09:32:10.262Z,83.40
2022-09-24T09:34:53.351Z,83.30
2022-09-24T09:37:40.557Z,83.40
2022-09-24T09:40:32.466Z,82.20
2022-09-24T09:43:09.157Z,82.00
2022-09-24T09:46:12.595Z,81.60
2022-09-24T09:48:52.197Z,82.00
2022-09-24T09:51:23.158Z,82.00
2022-09-24T09:54:02.217Z,82.30
2022-09-24T09:56:34.295Z,81.10
2022-09-24T09:59:27.154Z,81.70
2022-09-24T10:01:56.706Z,80.90
2022-09-24T10:04:39.913Z,81.10
2022-09-24T10:07:16.083Z,80.80
2022-09-24T10:09:44.746Z,80.50
2022-09-24T10:12:22.781Z,80.70
2022-09-24T10:15:12.229Z,79.70
2022-09-24T10:17:39.732Z,79.20
2022-09-24T10:20:30.026Z,79.50
2022-09-24T10:23:02.310Z,78.30
2022-09-24T10:25:31.367Z,79.20
2022-09-24T10:28:26.378Z,79.20
2022-09-24T10:30:59.227Z,77.80
2022-09-24T10:33:26.702Z,77.30
2022-09-24T10:36:07.645Z,77.10
2022-09-24T10:38:34.811Z,75.60
2022-09-24T10:41:02.011Z,76.50
2022-09-24T10:43:28.986Z,76.70
2022-09-24T10:46:40.955Z,76.70
2022-09-24T10:49:22.552Z,75.80
2022-09-24T10:52:42.390Z,76.10
2022-09-24T10:55:30.836Z,74.70
2022-09-24T10:58:31.766Z,75.50
2022-09-24T11:01:27.318Z,75.40
2022-09-24T11:04:10.194Z,75.30
2022-09-24T11:07:14.865Z,76.00
2022-09-24T11:10:01.318Z,75.80
2022-09-24T11:13:23.281Z,75.70
2022-09-24T11:16:55.378Z,75.40
2022-09-24T11:20:17.383Z,75.10
2022-09-24T11:23:17.259Z,74.30
2022-09-24T11:25:59.193Z,74.90
2022-09-24T11:29:15.910Z,74.70
2022-09-24T11:32:20.799Z,73.90
2022-09-24T11:35:18.599Z,73.70
2022-09-24T11:38:18.091Z,74.70
2022-09-24T11:41:16.948Z,74.00
2022-09-24T11:44:30.825Z,74.40
2022-09-24T11:47:26.133Z,74.90
2022-09-24T11:50:38.129Z,75.00
2022-09-24T11:53:32.425Z,75.30
2022-09-24T11:56:13.577Z,74.90
2022-09-24T11:58:51.584Z,74.90
2022-09-24T12:01:25.271Z,74.80
2022-09-24T12:04:16.572Z,75.10
2022-09-24T12:06:54.199Z,75.00
2022-09-24T12:09:40.628Z,74.50
2022-09-24T12:12:15.384Z,74.20
2022-09-24T12:14:56.265Z,74.10
2022-09-24T12:17:39.636Z,74.70
2022-09-24T12:20:24.973Z,74.70
2022-09-24T12:23:08.068Z,74.40
2022-09-24T12:25:45.039Z,74.50
2022-09-24T12:28:36.013Z,74.90
2022-09-24T12:31:31.446Z,75.00
2022-09-24T12:34:16.715Z,75.10
2022-09-24T12:37:06.300Z,75.00
2022-09-24T12:39:48.092Z,75.00
2022-09-24T12:42:17.320Z,75.40
2022-09-24T12:44:51.510Z,74.90
2022-09-24T12:47:23.219Z,76.30
2022-09-24T12:49:56.530Z,75.70
2022-09-24T12:52:41.699Z,74.20
2022-09-24T12:55:25.597Z,73.20
2022-09-24T12:57:59.505Z,73.30
2022-09-24T13:00:32.446Z,73.60
2022-09-24T13:03:01.107Z,73.60
2022-09-24T13:05:42.101Z,74.00
2022-09-24T13:08:11.544Z,74.40
2022-09-24T13:10:38.489Z,74.40
2022-09-24T13:13:29.025Z,74.50
2022-09-24T13:16:17.496Z,74.40
2022-09-24T13:18:57.912Z,74.60
2022-09-24T13:21:28.131Z,74.90
2022-09-24T13:23:56.166Z,74.70
2022-09-24T13:26:30.651Z,74.50
2022-09-24T13:29:06.762Z,74.70
2022-09-24T13:31:52.243Z,74.80
2022-09-24T13:34:27.055Z,71.70
2022-09-24T13:37:11.677Z,71.90
2022-09-24T13:39:51.813Z,72.00
2022-09-24T13:42:46.122Z,72.30
2022-09-24T13:45:20.753Z,72.60
2022-09-24T13:48:04.249Z,71.60
2022-09-24T13:50:34.631Z,71.20
2022-09-24T13:53:07.610Z,71.50
2022-09-24T13:55:50.228Z,69.70
2022-09-24T13:58:39.504Z,69.70
2022-09-24T14:01:20.691Z,69.50
2022-09-24T14:04:02.838Z,70.00
2022-09-24T14:06:38.824Z,68.70
2022-09-24T14:09:35.361Z,69.10
2022-09-24T14:12:22.561Z,69.70
2022-09-24T14:14:58.080Z,68.90
2022-09-24T14:17:25.706Z,69.70
2022-09-24T14:19:57.187Z,70.10
2022-09-24T14:22:31.853Z,70.10
2022-09-24T14:25:25.655Z,69.90
2022-09-24T14:27:52.585Z,69.60
2022-09-24T14:30:25.718Z,70.60
2022-09-24T14:33:16.182Z,70.60
2022-09-24T14:35:48.581Z,70.70
2022-09-24T14:38:29.643Z,71.20
2022-09-24T14:41:04.409Z,70.50
2022-09-24T14:43:44.758Z,69.50
2022-09-24T14:46:27.737Z,69.20
2022-09-24T14:49:22.344Z,69.10
2022-09-24T14:52:01.493Z,68.90
2022-09-24T14:54:38.125Z,69.80
2022-09-24T14:57:17.267Z,69.90
2022-09-24T14:59:44.740Z,70.10
2022-09-24T15:02:37.122Z,70.60
2022-09-24T15:05:08.054Z,71.30
2022-09-24T15:07:36.148Z,71.20
2022-09-24T15:10:06.215Z,71.00
2022-09-24T15:12:36.688Z,71.40
2022-09-24T15:15:18.301Z,71.30
2022-09-24T15:17:47.323Z,71.30
2022-09-24T15:20:14.588Z,71.50
2022-09-24T15:22:41.502Z,72.30
2022-09-24T15:25:08.963Z,71.90
2022-09-24T15:27:42.151Z,72.20
2022-09-24T15:30:19.824Z,72.80
2022-09-24T15:32:49.866Z,72.20
2022-09-24T15:35:17.060Z,72.10
2022-09-24T15:37:44.873Z,72.30
2022-09-24T15:40:25.313Z,72.40
2022-09-24T15:42:52.581Z,72.60
2022-09-24T15:45:24.610Z,73.30
2022-09-24T15:47:53.305Z,72.80
2022-09-24T15:50:22.890Z,73.00
2022-09-24T15:52:57.749Z,73.20
2022-09-24T15:55:24.651Z,73.50
2022-09-24T15:57:51.539Z,73.70
2022-09-24T16:00:21.759Z,74.10
2022-09-24T16:02:54.061Z,74.40
2022-09-24T16:05:21.761Z,74.70
2022-09-24T16:07:49.152Z,74.80
2022-09-24T16:10:16.660Z,74.90
2022-09-24T16:12:43.962Z,75.90
2022-09-24T16:15:15.036Z,75.30
2022-09-24T16:17:43.324Z,75.40
2022-09-24T16:20:10.430Z,75.60
2022-09-24T16:22:37.394Z,75.40
2022-09-24T16:25:04.838Z,75.20
2022-09-24T16:27:31.734Z,74.70
2022-09-24T16:29:58.639Z,75.30
2022-09-24T16:32:25.686Z,74.40
2022-09-24T16:34:54.806Z,74.40
2022-09-24T16:37:21.843Z,74.50
2022-09-24T16:39:48.931Z,74.50
2022-09-24T16:42:16.194Z,74.60
2022-09-24T16:44:43.072Z,74.80
2022-09-24T16:47:10.250Z,74.80
2022-09-24T16:49:37.120Z,74.80
2022-09-24T16:52:04.370Z,74.80
2022-09-24T16:54:32.652Z,74.90
2022-09-24T16:57:01.738Z,75.10
2022-09-24T16:59:28.615Z,75.20
2022-09-24T17:01:55.588Z,75.30
2022-09-24T17:04:22.708Z,75.40
2022-09-24T17:06:49.693Z,75.70
2022-09-24T17:09:35.366Z,75.80
2022-09-24T17:12:02.245Z,76.00
2022-09-24T17:14:29.184Z,76.20
2022-09-24T17:16:56.081Z,77.10
2022-09-24T17:19:22.957Z,76.60
2022-09-24T17:21:54.156Z,76.70
2022-09-24T17:24:22.102Z,76.90
2022-09-24T17:26:49.395Z,77.10
2022-09-24T17:29:20.442Z,77.50
2022-09-24T17:31:47.423Z,78.00
2022-09-24T17:34:15.198Z,78.10
2022-09-24T17:36:42.902Z,78.60
2022-09-24T17:39:12.836Z,79.50
2022-09-24T17:41:39.755Z,79.20
2022-09-24T17:44:07.194Z,79.20
2022-09-24T17:46:35.922Z,79.50
2022-09-24T17:49:03.272Z,80.30
2022-09-24T17:51:38.706Z,79.80
2022-09-24T17:54:10.679Z,80.70
2022-09-24T17:56:38.965Z,80.30
2022-09-24T17:59:08.799Z,80.30
2022-09-24T18:01:37.598Z,80.80
2022-09-24T18:04:07.133Z,80.90
2022-09-24T18:06:37.510Z,81.40
2022-09-24T18:09:05.333Z,81.80
2022-09-24T18:11:52.794Z,81.80
2022-09-24T18:14:22.578Z,82.70
2022-09-24T18:16:50.263Z,82.20
2022-09-24T18:19:17.683Z,82.30
2022-09-24T18:21:46.202Z,82.40
2022-09-24T18:24:14.358Z,82.50
2022-09-24T18:26:41.330Z,82.60
2022-09-24T18:29:15.631Z,82.60
2022-09-24T18:31:43.047Z,82.90
2022-09-24T18:34:14.634Z,83.00
2022-09-24T18:36:43.505Z,83.20
2022-09-24T18:39:13.373Z,83.40
2022-09-24T18:41:41.820Z,83.40
2022-09-24T18:44:10.387Z,83.70
2022-09-24T18:46:37.492Z,83.70
2022-09-24T18:49:06.266Z,83.70
2022-09-24T18:51:36.326Z,84.00
2022-09-24T18:54:10.881Z,84.30
2022-09-24T18:56:37.845Z,84.50
2022-09-24T18:59:12.645Z,84.40
2022-09-24T19:01:40.443Z,84.80
2022-09-24T19:04:10.651Z,84.70
2022-09-24T19:06:41.155Z,84.80
2022-09-24T19:09:09.284Z,84.90
2022-09-24T19:11:36.964Z,85.00
2022-09-24T19:14:04.346Z,85.10
2022-09-24T19:16:31.762Z,85.20
2022-09-24T19:19:00.809Z,85.20
2022-09-24T19:21:27.761Z,85.50
2022-09-24T19:23:57.467Z,85.60
2022-09-24T19:26:28.745Z,85.90
2022-09-24T19:28:55.699Z,86.10
2022-09-24T19:31:36.430Z,86.10
2022-09-24T19:34:05.890Z,86.50
2022-09-24T19:36:42.841Z,86.40
2022-09-24T19:39:16.430Z,86.70
2022-09-24T19:41:45.018Z,86.80
2022-09-24T19:44:12.241Z,86.80
2022-09-24T19:46:39.532Z,86.90
2022-09-24T19:49:07.027Z,87.10
2022-09-24T19:51:35.813Z,87.50
2022-09-24T19:54:06.694Z,87.60
2022-09-24T19:56:34.022Z,87.80
2022-09-24T19:59:01.716Z,87.90
2022-09-24T20:01:31.389Z,87.90
2022-09-24T20:04:02.073Z,88.00
2022-09-24T20:06:31.148Z,88.10
2022-09-24T20:08:59.289Z,88.20
2022-09-24T20:11:26.801Z,88.40
2022-09-24T20:13:56.070Z,88.60
2022-09-24T20:16:26.815Z,88.70
2022-09-24T20:18:57.428Z,88.90
2022-09-24T20:21:31.979Z,88.90
2022-09-24T20:23:59.130Z,89.20
2022-09-24T20:26:45.649Z,89.10
2022-09-24T20:29:14.132Z,89.30
2022-09-24T20:31:45.561Z,89.50
2022-09-24T20:34:12.469Z,89.60
2022-09-24T20:36:39.376Z,89.50
2022-09-24T20:39:06.234Z,89.50
2022-09-24T20:41:33.449Z,89.80
2022-09-24T20:44:00.344Z,89.90
2022-09-24T20:46:28.726Z,89.90
2022-09-24T20:48:58.398Z,90.00
2022-09-24T20:51:28.191Z,90.10
2022-09-24T20:53:55.725Z,90.40
2022-09-24T20:56:22.791Z,90.60
2022-09-24T20:58:51.825Z,90.80
2022-09-24T21:01:19.843Z,90.90
2022-09-24T21:03:49.748Z,91.00
2022-09-24T21:06:17.954Z,91.10
2022-09-24T21:08:46.672Z,91.30
2022-09-24T21:11:18.079Z,91.50
2022-09-24T21:13:51.688Z,91.70
2022-09-24T21:16:26.073Z,91.70
2022-09-24T21:18:56.129Z,92.00
2022-09-24T21:21:27.065Z,92.00
2022-09-24T21:23:57.106Z,91.90
2022-09-24T21:26:32.263Z,92.00
2022-09-24T21:29:18.029Z,92.10
2022-09-24T21:31:47.485Z,92.20
2022-09-24T21:34:19.679Z,92.20
2022-09-24T21:36:46.803Z,92.30
2022-09-24T21:39:16.264Z,92.30
2022-09-24T21:41:44.923Z,92.30
2022-09-24T21:44:14.886Z,92.30
2022-09-24T21:46:43.868Z,92.40
2022-09-24T21:49:11.838Z,92.40
2022-09-24T21:51:39.676Z,92.40
2022-09-24T21:54:08.612Z,92.50
2022-09-24T21:56:36.793Z,92.50
2022-09-24T21:59:24.380Z,92.40
2022-09-24T22:01:51.358Z,92.50
2022-09-24T22:04:18.368Z,92.50
2022-09-24T22:06:45.668Z,92.70
2022-09-24T22:09:13.083Z,92.70
2022-09-24T22:11:40.022Z,92.90
2022-09-24T22:14:07.105Z,93.00
2022-09-24T22:16:36.257Z,92.90
2022-09-24T22:19:06.020Z,93.00
2022-09-24T22:21:33.728Z,93.00
2022-09-24T22:24:01.015Z,93.00
2022-09-24T22:26:29.568Z,93.10
2022-09-24T22:28:57.017Z,93.00
2022-09-24T22:31:23.997Z,92.90
2022-09-24T22:34:09.374Z,93.00
2022-09-24T22:36:36.457Z,92.90
2022-09-24T22:39:05.146Z,92.90
2022-09-24T22:41:35.981Z,93.00
2022-09-24T22:44:03.200Z,93.10
2022-09-24T22:46:32.189Z,93.00
2022-09-24T22:48:59.381Z,93.00
2022-09-24T22:51:27.184Z,92.90
2022-09-24T22:53:54.968Z,92.90
2022-09-24T22:56:24.978Z,92.90
2022-09-24T22:58:57.661Z,93.00
2022-09-24T23:01:29.011Z,93.00
2022-09-24T23:03:57.144Z,93.10
2022-09-24T23:06:25.188Z,93.10
2022-09-24T23:08:54.273Z,93.10
2022-09-24T23:11:25.383Z,93.10
2022-09-24T23:13:59.869Z,93.10
2022-09-24T23:16:37.962Z,93.50
2022-09-24T23:19:11.258Z,93.10
2022-09-24T23:21:38.134Z,93.10
2022-09-24T23:24:28.313Z,93.20
2022-09-24T23:26:55.189Z,93.40
2022-09-24T23:29:22.049Z,93.40
2022-09-24T23:31:48.925Z,93.50
2022-09-24T23:34:15.783Z,93.60
2022-09-24T23:36:46.167Z,93.60
2022-09-24T23:39:13.561Z,93.60
2022-09-24T23:41:40.669Z,93.60
2022-09-24T23:44:07.599Z,93.70
2022-09-24T23:46:34.588Z,93.70
2022-09-24T23:49:01.535Z,93.80
2022-09-24T23:51:28.425Z,93.80
2022-09-24T23:53:55.315Z,93.80
2022-09-24T23:56:22.219Z,93.70
2022-09-24T23:58:49.387Z,93.70
